Roxbury, Massachusetts
Current Conditions -  °F | °C
As of 3:54 AM on Saturday 25 Oct 2014 (Local Time) from KBOS Reporting Station
Overcast Overcast  
Wind Chill: 44°   Ceiling: 6000
Heat Index: 47°   Visibility: 10mi
Dew Point: 41°   Wind: 7mph
Humidity: 80%   Direction: 290°WNW
Pressure: 29.75"   Gusts: NA
Location:  42.3237°N, 71.0855°W
Report Text: KBOS 250754Z 29006KT 10SM OVC060 08/05 A2975 RMK AO2 SLP072 T00830050
Loading
Personal Weather Stations






























Interactive Weather Map
Tropical Storm Tracking
New forecast layout! Learn more

10-Day Weather Forecast

Advertisements
Track Severe Weather on mobile